sensor_id;sensor_type;location;lat;lon;timestamp;temperature;humidity
16253;DHT22;8234;41.480;2.306;2023-01-16T00:00:11;9.00;99.90
16253;DHT22;8234;41.480;2.306;2023-01-16T00:21:15;8.80;99.90
16253;DHT22;8234;41.480;2.306;2023-01-16T00:31:19;8.70;99.90
16253;DHT22;8234;41.480;2.306;2023-01-16T00:41:27;8.70;99.90
16253;DHT22;8234;41.480;2.306;2023-01-16T00:51:30;8.90;99.90
16253;DHT22;8234;41.480;2.306;2023-01-16T01:01:36;9.00;99.90
16253;DHT22;8234;41.480;2.306;2023-01-16T01:11:40;8.90;99.90
16253;DHT22;8234;41.480;2.306;2023-01-16T01:21:45;8.90;99.90
16253;DHT22;8234;41.480;2.306;2023-01-16T01:31:49;8.60;99.90
16253;DHT22;8234;41.480;2.306;2023-01-16T01:41:55;8.40;99.90
16253;DHT22;8234;41.480;2.306;2023-01-16T01:52:19;8.60;99.90
16253;DHT22;8234;41.480;2.306;2023-01-16T02:02:26;8.50;99.90
16253;DHT22;8234;41.480;2.306;2023-01-16T02:12:33;8.50;99.90
16253;DHT22;8234;41.480;2.306;2023-01-16T02:33:16;8.20;99.90
16253;DHT22;8234;41.480;2.306;2023-01-16T02:43:30;8.10;99.90
16253;DHT22;8234;41.480;2.306;2023-01-16T02:53:42;8.10;99.90
16253;DHT22;8234;41.480;2.306;2023-01-16T03:03:50;7.80;99.90
16253;DHT22;8234;41.480;2.306;2023-01-16T03:14:15;7.50;99.90
16253;DHT22;8234;41.480;2.306;2023-01-16T03:24:30;7.60;99.90
16253;DHT22;8234;41.480;2.306;2023-01-16T03:34:44;7.00;99.90
16253;DHT22;8234;41.480;2.306;2023-01-16T03:44:52;6.60;99.90
16253;DHT22;8234;41.480;2.306;2023-01-16T03:55:02;6.70;99.90
16253;DHT22;8234;41.480;2.306;2023-01-16T04:05:14;6.80;99.90
16253;DHT22;8234;41.480;2.306;2023-01-16T04:15:21;7.00;99.90
16253;DHT22;8234;41.480;2.306;2023-01-16T04:25:27;7.50;99.90
16253;DHT22;8234;41.480;2.306;2023-01-16T04:35:32;7.70;99.90
16253;DHT22;8234;41.480;2.306;2023-01-16T04:45:36;7.80;99.90
16253;DHT22;8234;41.480;2.306;2023-01-16T04:55:43;8.30;99.90
16253;DHT22;8234;41.480;2.306;2023-01-16T05:05:47;8.60;99.90
16253;DHT22;8234;41.480;2.306;2023-01-16T05:15:52;8.70;99.90
16253;DHT22;8234;41.480;2.306;2023-01-16T05:25:55;8.90;99.90
16253;DHT22;8234;41.480;2.306;2023-01-16T05:36:00;8.70;99.90
16253;DHT22;8234;41.480;2.306;2023-01-16T05:46:04;8.40;99.90
16253;DHT22;8234;41.480;2.306;2023-01-16T05:56:10;8.40;99.90
16253;DHT22;8234;41.480;2.306;2023-01-16T06:06:15;8.50;99.90
16253;DHT22;8234;41.480;2.306;2023-01-16T06:16:20;8.60;99.90
16253;DHT22;8234;41.480;2.306;2023-01-16T06:26:25;8.40;99.90
16253;DHT22;8234;41.480;2.306;2023-01-16T06:36:30;8.50;99.90
16253;DHT22;8234;41.480;2.306;2023-01-16T06:46:34;8.50;99.90
16253;DHT22;8234;41.480;2.306;2023-01-16T06:56:39;8.60;99.90
16253;DHT22;8234;41.480;2.306;2023-01-16T07:06:43;8.60;99.90
16253;DHT22;8234;41.480;2.306;2023-01-16T07:16:49;8.50;99.90
16253;DHT22;8234;41.480;2.306;2023-01-16T07:27:10;8.50;99.90
16253;DHT22;8234;41.480;2.306;2023-01-16T07:37:15;8.60;99.90
16253;DHT22;8234;41.480;2.306;2023-01-16T07:47:19;8.70;99.90
16253;DHT22;8234;41.480;2.306;2023-01-16T07:57:25;8.90;99.90
16253;DHT22;8234;41.480;2.306;2023-01-16T08:07:29;9.10;99.90
16253;DHT22;8234;41.480;2.306;2023-01-16T08:17:37;9.50;99.90
16253;DHT22;8234;41.480;2.306;2023-01-16T08:27:41;9.40;99.90
16253;DHT22;8234;41.480;2.306;2023-01-16T08:37:50;9.50;99.90
16253;DHT22;8234;41.480;2.306;2023-01-16T08:47:54;9.60;99.90
16253;DHT22;8234;41.480;2.306;2023-01-16T08:58:16;9.60;99.90
16253;DHT22;8234;41.480;2.306;2023-01-16T09:08:23;9.70;99.90
16253;DHT22;8234;41.480;2.306;2023-01-16T09:18:28;10.00;99.90
16253;DHT22;8234;41.480;2.306;2023-01-16T09:28:32;10.30;99.90
16253;DHT22;8234;41.480;2.306;2023-01-16T09:38:38;10.70;99.90
16253;DHT22;8234;41.480;2.306;2023-01-16T09:48:47;11.10;99.90
16253;DHT22;8234;41.480;2.306;2023-01-16T09:59:00;11.40;99.90
16253;DHT22;8234;41.480;2.306;2023-01-16T10:09:10;11.70;99.90
16253;DHT22;8234;41.480;2.306;2023-01-16T10:19:28;12.00;99.90
16253;DHT22;8234;41.480;2.306;2023-01-16T10:29:38;12.20;99.90
16253;DHT22;8234;41.480;2.306;2023-01-16T10:39:44;12.60;99.90
16253;DHT22;8234;41.480;2.306;2023-01-16T10:49:48;13.40;99.90
16253;DHT22;8234;41.480;2.306;2023-01-16T10:59:57;14.20;99.90
16253;DHT22;8234;41.480;2.306;2023-01-16T11:10:05;15.10;99.90
16253;DHT22;8234;41.480;2.306;2023-01-16T11:20:13;15.20;99.90
16253;DHT22;8234;41.480;2.306;2023-01-16T11:30:19;15.50;99.90
16253;DHT22;8234;41.480;2.306;2023-01-16T11:40:35;15.40;99.90
16253;DHT22;8234;41.480;2.306;2023-01-16T11:50:40;15.40;99.90
16253;DHT22;8234;41.480;2.306;2023-01-16T12:00:51;15.90;99.90
16253;DHT22;8234;41.480;2.306;2023-01-16T12:11:02;15.60;99.90
16253;DHT22;8234;41.480;2.306;2023-01-16T12:21:20;15.40;99.90
16253;DHT22;8234;41.480;2.306;2023-01-16T12:31:43;15.50;99.90
16253;DHT22;8234;41.480;2.306;2023-01-16T12:41:57;15.30;99.90
16253;DHT22;8234;41.480;2.306;2023-01-16T12:52:46;14.90;99.90
16253;DHT22;8234;41.480;2.306;2023-01-16T13:02:57;14.80;99.90
16253;DHT22;8234;41.480;2.306;2023-01-16T13:13:03;15.00;99.90
16253;DHT22;8234;41.480;2.306;2023-01-16T13:23:36;15.10;99.90
16253;DHT22;8234;41.480;2.306;2023-01-16T13:33:43;15.20;99.90
16253;DHT22;8234;41.480;2.306;2023-01-16T13:43:56;15.00;99.90
16253;DHT22;8234;41.480;2.306;2023-01-16T13:54:20;16.00;99.90
16253;DHT22;8234;41.480;2.306;2023-01-16T14:04:31;16.70;99.90
16253;DHT22;8234;41.480;2.306;2023-01-16T14:14:49;15.20;99.90
16253;DHT22;8234;41.480;2.306;2023-01-16T14:25:20;15.10;99.90
16253;DHT22;8234;41.480;2.306;2023-01-16T14:35:27;14.80;99.90
16253;DHT22;8234;41.480;2.306;2023-01-16T14:45:33;14.40;99.90
16253;DHT22;8234;41.480;2.306;2023-01-16T14:55:58;14.10;99.90
16253;DHT22;8234;41.480;2.306;2023-01-16T15:06:09;14.10;99.90
16253;DHT22;8234;41.480;2.306;2023-01-16T15:16:13;14.00;99.90
16253;DHT22;8234;41.480;2.306;2023-01-16T15:26:48;13.80;99.90
16253;DHT22;8234;41.480;2.306;2023-01-16T15:36:56;13.90;99.90
16253;DHT22;8234;41.480;2.306;2023-01-16T15:47:21;13.80;99.90
16253;DHT22;8234;41.480;2.306;2023-01-16T15:57:27;13.80;99.90
16253;DHT22;8234;41.480;2.306;2023-01-16T16:07:32;13.50;99.90
16253;DHT22;8234;41.480;2.306;2023-01-16T16:17:36;13.50;99.90
16253;DHT22;8234;41.480;2.306;2023-01-16T16:28:00;13.40;99.90
16253;DHT22;8234;41.480;2.306;2023-01-16T16:38:04;13.30;99.90
16253;DHT22;8234;41.480;2.306;2023-01-16T16:48:24;13.20;99.90
16253;DHT22;8234;41.480;2.306;2023-01-16T16:58:31;13.20;99.90
16253;DHT22;8234;41.480;2.306;2023-01-16T17:08:36;13.30;99.90
16253;DHT22;8234;41.480;2.306;2023-01-16T17:18:40;13.20;99.90
16253;DHT22;8234;41.480;2.306;2023-01-16T17:28:45;13.30;99.90
16253;DHT22;8234;41.480;2.306;2023-01-16T17:38:49;13.10;99.90
16253;DHT22;8234;41.480;2.306;2023-01-16T17:48:55;13.10;99.90
16253;DHT22;8234;41.480;2.306;2023-01-16T17:58:59;13.20;99.90
16253;DHT22;8234;41.480;2.306;2023-01-16T18:09:12;13.10;99.90
16253;DHT22;8234;41.480;2.306;2023-01-16T18:19:17;12.90;99.90
16253;DHT22;8234;41.480;2.306;2023-01-16T18:29:22;12.80;99.90
16253;DHT22;8234;41.480;2.306;2023-01-16T18:39:26;12.80;99.90
16253;DHT22;8234;41.480;2.306;2023-01-16T18:49:49;12.70;99.90
16253;DHT22;8234;41.480;2.306;2023-01-16T19:00:14;12.80;99.90
16253;DHT22;8234;41.480;2.306;2023-01-16T19:10:37;12.90;99.90
16253;DHT22;8234;41.480;2.306;2023-01-16T19:20:41;12.80;99.90
16253;DHT22;8234;41.480;2.306;2023-01-16T19:30:46;12.80;99.90
16253;DHT22;8234;41.480;2.306;2023-01-16T19:40:50;12.70;99.90
16253;DHT22;8234;41.480;2.306;2023-01-16T19:50:56;12.80;99.90
16253;DHT22;8234;41.480;2.306;2023-01-16T20:01:09;12.70;99.90
16253;DHT22;8234;41.480;2.306;2023-01-16T20:11:15;12.60;99.90
16253;DHT22;8234;41.480;2.306;2023-01-16T20:21:19;12.50;99.90
16253;DHT22;8234;41.480;2.306;2023-01-16T20:31:24;12.00;99.90
16253;DHT22;8234;41.480;2.306;2023-01-16T20:41:30;11.80;99.90
16253;DHT22;8234;41.480;2.306;2023-01-16T20:51:53;11.80;99.90
16253;DHT22;8234;41.480;2.306;2023-01-16T21:01:58;11.90;99.90
16253;DHT22;8234;41.480;2.306;2023-01-16T21:12:05;11.60;99.90
16253;DHT22;8234;41.480;2.306;2023-01-16T21:22:28;11.70;99.90
16253;DHT22;8234;41.480;2.306;2023-01-16T21:32:33;11.90;99.90
16253;DHT22;8234;41.480;2.306;2023-01-16T21:42:37;11.90;99.90
16253;DHT22;8234;41.480;2.306;2023-01-16T21:53:00;12.20;99.90
16253;DHT22;8234;41.480;2.306;2023-01-16T22:03:06;11.90;99.90
16253;DHT22;8234;41.480;2.306;2023-01-16T22:13:11;11.70;99.90
16253;DHT22;8234;41.480;2.306;2023-01-16T22:23:33;11.80;99.90
16253;DHT22;8234;41.480;2.306;2023-01-16T22:33:38;11.50;99.90
16253;DHT22;8234;41.480;2.306;2023-01-16T22:43:42;11.60;99.90
16253;DHT22;8234;41.480;2.306;2023-01-16T22:54:05;11.60;99.90
16253;DHT22;8234;41.480;2.306;2023-01-16T23:04:09;12.00;99.90
16253;DHT22;8234;41.480;2.306;2023-01-16T23:14:16;12.20;99.90
16253;DHT22;8234;41.480;2.306;2023-01-16T23:24:22;12.20;99.90
16253;DHT22;8234;41.480;2.306;2023-01-16T23:34:27;12.20;99.90
16253;DHT22;8234;41.480;2.306;2023-01-16T23:44:31;12.20;99.90
16253;DHT22;8234;41.480;2.306;2023-01-16T23:54:39;12.30;99.90
